sensor_id;sensor_type;location;lat;lon;timestamp;temperature;humidity
19166;DHT22;9715;48.816;10.520;2022-07-06T00:02:13;18.80;96.10
19166;DHT22;9715;48.816;10.520;2022-07-06T00:04:41;18.90;95.70
19166;DHT22;9715;48.816;10.520;2022-07-06T00:07:09;19.00;95.40
19166;DHT22;9715;48.816;10.520;2022-07-06T00:09:38;19.10;95.00
19166;DHT22;9715;48.816;10.520;2022-07-06T00:12:07;19.20;94.80
19166;DHT22;9715;48.816;10.520;2022-07-06T00:14:35;19.20;94.50
19166;DHT22;9715;48.816;10.520;2022-07-06T00:17:05;19.20;94.10
19166;DHT22;9715;48.816;10.520;2022-07-06T00:19:33;19.30;94.10
19166;DHT22;9715;48.816;10.520;2022-07-06T00:22:02;19.30;94.10
19166;DHT22;9715;48.816;10.520;2022-07-06T00:24:31;19.30;94.10
19166;DHT22;9715;48.816;10.520;2022-07-06T00:26:59;19.40;93.90
19166;DHT22;9715;48.816;10.520;2022-07-06T00:29:27;19.40;94.00
19166;DHT22;9715;48.816;10.520;2022-07-06T00:31:57;19.30;93.90
19166;DHT22;9715;48.816;10.520;2022-07-06T00:34:27;19.40;93.80
19166;DHT22;9715;48.816;10.520;2022-07-06T00:36:55;19.30;93.80
19166;DHT22;9715;48.816;10.520;2022-07-06T00:39:23;19.30;93.70
19166;DHT22;9715;48.816;10.520;2022-07-06T00:41:56;19.30;93.70
19166;DHT22;9715;48.816;10.520;2022-07-06T00:44:24;19.20;93.70
19166;DHT22;9715;48.816;10.520;2022-07-06T00:46:52;19.20;93.90
19166;DHT22;9715;48.816;10.520;2022-07-06T00:49:21;19.20;93.80
19166;DHT22;9715;48.816;10.520;2022-07-06T00:52:08;19.10;93.90
19166;DHT22;9715;48.816;10.520;2022-07-06T00:54:39;19.10;93.70
19166;DHT22;9715;48.816;10.520;2022-07-06T00:57:09;19.10;93.90
19166;DHT22;9715;48.816;10.520;2022-07-06T00:59:38;19.10;93.90
19166;DHT22;9715;48.816;10.520;2022-07-06T01:02:06;19.20;93.70
19166;DHT22;9715;48.816;10.520;2022-07-06T01:04:35;19.20;93.80
19166;DHT22;9715;48.816;10.520;2022-07-06T01:07:03;19.20;94.10
19166;DHT22;9715;48.816;10.520;2022-07-06T01:09:33;19.10;94.80
19166;DHT22;9715;48.816;10.520;2022-07-06T01:12:01;19.10;95.40
19166;DHT22;9715;48.816;10.520;2022-07-06T01:14:30;19.10;96.00
19166;DHT22;9715;48.816;10.520;2022-07-06T01:17:00;19.00;96.50
19166;DHT22;9715;48.816;10.520;2022-07-06T01:19:28;19.00;97.00
19166;DHT22;9715;48.816;10.520;2022-07-06T01:21:58;18.80;97.40
19166;DHT22;9715;48.816;10.520;2022-07-06T01:24:26;18.60;97.80
19166;DHT22;9715;48.816;10.520;2022-07-06T01:26:55;18.50;97.70
19166;DHT22;9715;48.816;10.520;2022-07-06T01:29:23;18.40;97.70
19166;DHT22;9715;48.816;10.520;2022-07-06T01:31:51;18.30;97.60
19166;DHT22;9715;48.816;10.520;2022-07-06T01:34:19;18.30;97.60
19166;DHT22;9715;48.816;10.520;2022-07-06T01:36:48;18.20;97.60
19166;DHT22;9715;48.816;10.520;2022-07-06T01:39:18;18.30;97.30
19166;DHT22;9715;48.816;10.520;2022-07-06T01:41:47;18.20;96.90
19166;DHT22;9715;48.816;10.520;2022-07-06T01:44:15;18.20;96.70
19166;DHT22;9715;48.816;10.520;2022-07-06T01:46:43;18.20;96.80
19166;DHT22;9715;48.816;10.520;2022-07-06T01:49:11;18.20;96.60
19166;DHT22;9715;48.816;10.520;2022-07-06T01:51:39;18.30;96.50
19166;DHT22;9715;48.816;10.520;2022-07-06T01:54:08;18.30;96.50
19166;DHT22;9715;48.816;10.520;2022-07-06T01:56:38;18.30;96.60
19166;DHT22;9715;48.816;10.520;2022-07-06T01:59:06;18.30;96.60
19166;DHT22;9715;48.816;10.520;2022-07-06T02:01:34;18.30;96.80
19166;DHT22;9715;48.816;10.520;2022-07-06T02:04:03;18.20;96.80
19166;DHT22;9715;48.816;10.520;2022-07-06T02:06:31;18.20;96.90
19166;DHT22;9715;48.816;10.520;2022-07-06T02:08:59;18.20;97.00
19166;DHT22;9715;48.816;10.520;2022-07-06T02:11:28;18.10;97.10
19166;DHT22;9715;48.816;10.520;2022-07-06T02:13:57;18.20;97.20
19166;DHT22;9715;48.816;10.520;2022-07-06T02:16:26;18.10;97.30
19166;DHT22;9715;48.816;10.520;2022-07-06T02:18:54;18.00;97.40
19166;DHT22;9715;48.816;10.520;2022-07-06T02:21:23;18.00;97.50
19166;DHT22;9715;48.816;10.520;2022-07-06T02:23:51;18.00;97.50
19166;DHT22;9715;48.816;10.520;2022-07-06T02:26:19;17.90;97.70
19166;DHT22;9715;48.816;10.520;2022-07-06T02:28:47;17.90;97.90
19166;DHT22;9715;48.816;10.520;2022-07-06T02:31:17;17.80;97.90
19166;DHT22;9715;48.816;10.520;2022-07-06T02:33:46;17.80;97.90
19166;DHT22;9715;48.816;10.520;2022-07-06T02:36:14;17.80;98.00
19166;DHT22;9715;48.816;10.520;2022-07-06T02:38:42;17.80;98.20
19166;DHT22;9715;48.816;10.520;2022-07-06T02:41:11;17.80;98.40
19166;DHT22;9715;48.816;10.520;2022-07-06T02:43:40;17.70;98.40
19166;DHT22;9715;48.816;10.520;2022-07-06T02:46:08;17.80;98.60
19166;DHT22;9715;48.816;10.520;2022-07-06T02:48:38;17.70;98.50
19166;DHT22;9715;48.816;10.520;2022-07-06T02:51:06;17.70;98.60
19166;DHT22;9715;48.816;10.520;2022-07-06T02:53:35;17.70;98.70
19166;DHT22;9715;48.816;10.520;2022-07-06T02:56:03;17.60;98.80
19166;DHT22;9715;48.816;10.520;2022-07-06T02:58:32;17.60;98.90
19166;DHT22;9715;48.816;10.520;2022-07-06T03:01:00;17.60;99.20
19166;DHT22;9715;48.816;10.520;2022-07-06T03:03:28;17.60;99.20
19166;DHT22;9715;48.816;10.520;2022-07-06T03:05:58;17.50;99.50
19166;DHT22;9715;48.816;10.520;2022-07-06T03:08:26;17.50;99.60
19166;DHT22;9715;48.816;10.520;2022-07-06T03:10:55;17.50;99.70
19166;DHT22;9715;48.816;10.520;2022-07-06T03:13:23;17.50;99.80
19166;DHT22;9715;48.816;10.520;2022-07-06T03:15:51;17.40;99.80
19166;DHT22;9715;48.816;10.520;2022-07-06T03:18:20;17.40;99.90
19166;DHT22;9715;48.816;10.520;2022-07-06T03:20:49;17.40;99.90
19166;DHT22;9715;48.816;10.520;2022-07-06T03:23:19;17.40;99.90
19166;DHT22;9715;48.816;10.520;2022-07-06T03:25:47;17.30;99.90
19166;DHT22;9715;48.816;10.520;2022-07-06T03:28:16;17.30;99.90
19166;DHT22;9715;48.816;10.520;2022-07-06T03:30:44;17.30;99.90
19166;DHT22;9715;48.816;10.520;2022-07-06T03:33:12;17.30;99.90
19166;DHT22;9715;48.816;10.520;2022-07-06T03:35:41;17.30;99.90
19166;DHT22;9715;48.816;10.520;2022-07-06T03:38:09;17.30;99.90
19166;DHT22;9715;48.816;10.520;2022-07-06T03:40:39;17.30;99.90
19166;DHT22;9715;48.816;10.520;2022-07-06T03:43:08;17.30;99.90
19166;DHT22;9715;48.816;10.520;2022-07-06T03:45:36;17.30;99.90
19166;DHT22;9715;48.816;10.520;2022-07-06T03:48:04;17.30;99.90
19166;DHT22;9715;48.816;10.520;2022-07-06T03:50:33;17.20;99.90
19166;DHT22;9715;48.816;10.520;2022-07-06T03:53:01;17.30;99.90
19166;DHT22;9715;48.816;10.520;2022-07-06T03:55:30;17.30;99.90
19166;DHT22;9715;48.816;10.520;2022-07-06T03:58:00;17.30;99.90
19166;DHT22;9715;48.816;10.520;2022-07-06T04:00:32;17.30;99.90
19166;DHT22;9715;48.816;10.520;2022-07-06T04:03:01;17.30;99.90
19166;DHT22;9715;48.816;10.520;2022-07-06T04:05:29;17.30;99.90
19166;DHT22;9715;48.816;10.520;2022-07-06T04:07:58;17.30;99.90
19166;DHT22;9715;48.816;10.520;2022-07-06T04:10:26;17.30;99.90
19166;DHT22;9715;48.816;10.520;2022-07-06T04:12:54;17.30;99.90
19166;DHT22;9715;48.816;10.520;2022-07-06T04:15:24;17.30;99.90
19166;DHT22;9715;48.816;10.520;2022-07-06T04:17:53;17.40;99.90
19166;DHT22;9715;48.816;10.520;2022-07-06T04:20:24;17.40;99.90
19166;DHT22;9715;48.816;10.520;2022-07-06T04:22:52;17.40;99.90
19166;DHT22;9715;48.816;10.520;2022-07-06T04:25:21;17.40;99.90
19166;DHT22;9715;48.816;10.520;2022-07-06T04:27:49;17.50;99.90
19166;DHT22;9715;48.816;10.520;2022-07-06T04:30:17;17.50;99.90
19166;DHT22;9715;48.816;10.520;2022-07-06T04:32:47;17.50;99.90
19166;DHT22;9715;48.816;10.520;2022-07-06T04:35:16;17.50;99.90
19166;DHT22;9715;48.816;10.520;2022-07-06T04:37:44;17.60;99.90
19166;DHT22;9715;48.816;10.520;2022-07-06T04:40:13;17.50;99.90
19166;DHT22;9715;48.816;10.520;2022-07-06T04:42:44;17.60;99.90
19166;DHT22;9715;48.816;10.520;2022-07-06T04:45:13;17.50;99.90
19166;DHT22;9715;48.816;10.520;2022-07-06T04:47:42;17.50;99.90
19166;DHT22;9715;48.816;10.520;2022-07-06T04:50:13;17.50;99.90
19166;DHT22;9715;48.816;10.520;2022-07-06T04:52:41;17.50;99.90
19166;DHT22;9715;48.816;10.520;2022-07-06T04:55:10;17.50;99.90
19166;DHT22;9715;48.816;10.520;2022-07-06T04:57:41;17.50;99.90
19166;DHT22;9715;48.816;10.520;2022-07-06T05:00:10;17.50;99.90
19166;DHT22;9715;48.816;10.520;2022-07-06T05:02:39;17.50;99.90
19166;DHT22;9715;48.816;10.520;2022-07-06T05:05:07;17.50;99.90
19166;DHT22;9715;48.816;10.520;2022-07-06T05:07:39;17.60;99.90
19166;DHT22;9715;48.816;10.520;2022-07-06T05:10:09;17.50;99.90
19166;DHT22;9715;48.816;10.520;2022-07-06T05:12:37;17.60;99.90
19166;DHT22;9715;48.816;10.520;2022-07-06T05:15:07;17.60;99.90
19166;DHT22;9715;48.816;10.520;2022-07-06T05:17:35;17.60;99.90
19166;DHT22;9715;48.816;10.520;2022-07-06T05:20:05;17.60;99.90
19166;DHT22;9715;48.816;10.520;2022-07-06T05:22:34;17.70;99.90
19166;DHT22;9715;48.816;10.520;2022-07-06T05:25:11;17.70;99.90
19166;DHT22;9715;48.816;10.520;2022-07-06T05:27:39;17.70;99.90
19166;DHT22;9715;48.816;10.520;2022-07-06T05:30:09;17.70;99.90
19166;DHT22;9715;48.816;10.520;2022-07-06T05:32:37;17.70;99.90
19166;DHT22;9715;48.816;10.520;2022-07-06T05:35:07;17.80;99.90
19166;DHT22;9715;48.816;10.520;2022-07-06T05:37:55;17.80;99.90
19166;DHT22;9715;48.816;10.520;2022-07-06T05:40:25;17.70;99.90
19166;DHT22;9715;48.816;10.520;2022-07-06T05:42:53;17.80;99.90
19166;DHT22;9715;48.816;10.520;2022-07-06T05:45:22;17.70;99.90
19166;DHT22;9715;48.816;10.520;2022-07-06T05:47:50;17.70;99.90
19166;DHT22;9715;48.816;10.520;2022-07-06T05:50:36;17.80;99.90
19166;DHT22;9715;48.816;10.520;2022-07-06T05:53:05;17.80;99.90
19166;DHT22;9715;48.816;10.520;2022-07-06T05:55:46;17.80;99.90
19166;DHT22;9715;48.816;10.520;2022-07-06T05:58:15;17.80;99.90
19166;DHT22;9715;48.816;10.520;2022-07-06T06:00:43;17.90;99.90
19166;DHT22;9715;48.816;10.520;2022-07-06T06:03:12;17.90;99.90
19166;DHT22;9715;48.816;10.520;2022-07-06T06:05:40;18.00;99.90
19166;DHT22;9715;48.816;10.520;2022-07-06T06:08:08;18.00;99.90
19166;DHT22;9715;48.816;10.520;2022-07-06T06:10:36;18.10;99.90
19166;DHT22;9715;48.816;10.520;2022-07-06T06:13:06;18.10;99.90
19166;DHT22;9715;48.816;10.520;2022-07-06T06:15:35;18.10;99.90
19166;DHT22;9715;48.816;10.520;2022-07-06T06:18:03;18.10;99.90
19166;DHT22;9715;48.816;10.520;2022-07-06T06:20:32;18.10;99.90
19166;DHT22;9715;48.816;10.520;2022-07-06T06:23:01;18.10;99.90
19166;DHT22;9715;48.816;10.520;2022-07-06T06:25:32;18.20;99.90
19166;DHT22;9715;48.816;10.520;2022-07-06T06:28:02;18.20;99.90
19166;DHT22;9715;48.816;10.520;2022-07-06T06:30:32;18.20;99.90
19166;DHT22;9715;48.816;10.520;2022-07-06T06:33:08;18.20;99.90
19166;DHT22;9715;48.816;10.520;2022-07-06T06:35:37;18.30;99.90
19166;DHT22;9715;48.816;10.520;2022-07-06T06:38:06;18.40;99.90
19166;DHT22;9715;48.816;10.520;2022-07-06T06:40:34;18.40;99.90
19166;DHT22;9715;48.816;10.520;2022-07-06T06:43:02;18.40;99.90
19166;DHT22;9715;48.816;10.520;2022-07-06T06:45:32;18.50;99.90
19166;DHT22;9715;48.816;10.520;2022-07-06T06:48:01;18.50;99.90
19166;DHT22;9715;48.816;10.520;2022-07-06T06:50:29;18.50;99.90
19166;DHT22;9715;48.816;10.520;2022-07-06T06:52:57;18.60;99.90
19166;DHT22;9715;48.816;10.520;2022-07-06T06:55:26;18.60;99.90
19166;DHT22;9715;48.816;10.520;2022-07-06T06:57:54;18.60;99.90
19166;DHT22;9715;48.816;10.520;2022-07-06T07:00:22;18.70;99.90
19166;DHT22;9715;48.816;10.520;2022-07-06T07:02:52;18.80;99.90
19166;DHT22;9715;48.816;10.520;2022-07-06T07:05:21;18.80;99.90
19166;DHT22;9715;48.816;10.520;2022-07-06T07:07:49;18.90;99.90
19166;DHT22;9715;48.816;10.520;2022-07-06T07:10:17;19.00;99.90
19166;DHT22;9715;48.816;10.520;2022-07-06T07:12:47;19.00;99.90
19166;DHT22;9715;48.816;10.520;2022-07-06T07:15:16;19.10;99.90
19166;DHT22;9715;48.816;10.520;2022-07-06T07:17:44;19.20;99.90
19166;DHT22;9715;48.816;10.520;2022-07-06T07:20:14;19.20;99.90
19166;DHT22;9715;48.816;10.520;2022-07-06T07:22:43;19.20;99.90
19166;DHT22;9715;48.816;10.520;2022-07-06T07:25:11;19.20;99.90
19166;DHT22;9715;48.816;10.520;2022-07-06T07:27:39;19.40;99.90
19166;DHT22;9715;48.816;10.520;2022-07-06T07:30:10;19.40;99.90
19166;DHT22;9715;48.816;10.520;2022-07-06T07:32:38;19.50;99.90
19166;DHT22;9715;48.816;10.520;2022-07-06T07:35:08;19.60;99.90
19166;DHT22;9715;48.816;10.520;2022-07-06T07:37:37;19.60;99.90
19166;DHT22;9715;48.816;10.520;2022-07-06T07:40:06;19.60;99.90
19166;DHT22;9715;48.816;10.520;2022-07-06T07:42:35;19.60;99.90
19166;DHT22;9715;48.816;10.520;2022-07-06T07:45:07;19.70;99.90
19166;DHT22;9715;48.816;10.520;2022-07-06T07:47:36;19.80;99.90
19166;DHT22;9715;48.816;10.520;2022-07-06T07:50:06;19.80;99.90
19166;DHT22;9715;48.816;10.520;2022-07-06T07:52:34;19.80;99.90
19166;DHT22;9715;48.816;10.520;2022-07-06T07:55:05;19.90;99.90
19166;DHT22;9715;48.816;10.520;2022-07-06T07:57:54;20.00;99.90
19166;DHT22;9715;48.816;10.520;2022-07-06T08:00:22;20.00;99.90
19166;DHT22;9715;48.816;10.520;2022-07-06T08:02:54;20.00;99.90
19166;DHT22;9715;48.816;10.520;2022-07-06T08:05:22;20.10;99.90
19166;DHT22;9715;48.816;10.520;2022-07-06T08:07:50;20.20;99.90
19166;DHT22;9715;48.816;10.520;2022-07-06T08:10:21;20.20;99.90
19166;DHT22;9715;48.816;10.520;2022-07-06T08:12:49;20.20;99.90
19166;DHT22;9715;48.816;10.520;2022-07-06T08:15:18;20.30;99.90
19166;DHT22;9715;48.816;10.520;2022-07-06T08:17:46;20.30;99.90
19166;DHT22;9715;48.816;10.520;2022-07-06T08:20:15;20.40;99.90
19166;DHT22;9715;48.816;10.520;2022-07-06T08:22:43;20.40;99.90
19166;DHT22;9715;48.816;10.520;2022-07-06T08:25:12;20.50;99.90
19166;DHT22;9715;48.816;10.520;2022-07-06T08:27:41;20.60;99.90
19166;DHT22;9715;48.816;10.520;2022-07-06T08:30:11;20.70;99.90
19166;DHT22;9715;48.816;10.520;2022-07-06T08:32:40;20.70;99.90
19166;DHT22;9715;48.816;10.520;2022-07-06T08:35:29;20.80;99.90
19166;DHT22;9715;48.816;10.520;2022-07-06T08:37:58;20.80;99.90
19166;DHT22;9715;48.816;10.520;2022-07-06T08:40:27;20.90;99.90
19166;DHT22;9715;48.816;10.520;2022-07-06T08:43:01;20.90;99.90
19166;DHT22;9715;48.816;10.520;2022-07-06T08:45:30;21.00;99.90
19166;DHT22;9715;48.816;10.520;2022-07-06T08:48:04;21.10;99.90
19166;DHT22;9715;48.816;10.520;2022-07-06T08:50:33;21.20;99.90
19166;DHT22;9715;48.816;10.520;2022-07-06T08:53:02;21.20;99.50
19166;DHT22;9715;48.816;10.520;2022-07-06T08:55:31;21.30;99.90
19166;DHT22;9715;48.816;10.520;2022-07-06T08:58:00;21.30;99.80
19166;DHT22;9715;48.816;10.520;2022-07-06T09:00:32;21.40;98.20
19166;DHT22;9715;48.816;10.520;2022-07-06T09:03:00;21.50;97.60
19166;DHT22;9715;48.816;10.520;2022-07-06T09:05:29;21.50;96.60
19166;DHT22;9715;48.816;10.520;2022-07-06T09:07:59;21.60;97.60
19166;DHT22;9715;48.816;10.520;2022-07-06T09:10:28;21.70;97.30
19166;DHT22;9715;48.816;10.520;2022-07-06T09:13:03;21.70;97.90
19166;DHT22;9715;48.816;10.520;2022-07-06T09:15:32;21.90;96.70
19166;DHT22;9715;48.816;10.520;2022-07-06T09:18:03;22.00;97.00
19166;DHT22;9715;48.816;10.520;2022-07-06T09:20:32;22.00;95.50
19166;DHT22;9715;48.816;10.520;2022-07-06T09:23:03;22.20;97.20
19166;DHT22;9715;48.816;10.520;2022-07-06T09:25:31;22.20;95.50
19166;DHT22;9715;48.816;10.520;2022-07-06T09:28:00;22.30;95.30
19166;DHT22;9715;48.816;10.520;2022-07-06T09:30:30;22.40;96.20
19166;DHT22;9715;48.816;10.520;2022-07-06T09:32:59;22.40;97.00
19166;DHT22;9715;48.816;10.520;2022-07-06T09:35:29;22.50;95.30
19166;DHT22;9715;48.816;10.520;2022-07-06T09:38:02;22.50;93.10
19166;DHT22;9715;48.816;10.520;2022-07-06T09:40:31;22.70;93.80
19166;DHT22;9715;48.816;10.520;2022-07-06T09:43:14;22.70;92.50
19166;DHT22;9715;48.816;10.520;2022-07-06T09:45:46;22.70;93.30
19166;DHT22;9715;48.816;10.520;2022-07-06T09:48:15;22.90;94.70
19166;DHT22;9715;48.816;10.520;2022-07-06T09:50:47;23.00;91.50
19166;DHT22;9715;48.816;10.520;2022-07-06T09:53:18;23.00;91.10
19166;DHT22;9715;48.816;10.520;2022-07-06T09:55:47;23.00;91.20
19166;DHT22;9715;48.816;10.520;2022-07-06T09:58:16;23.20;91.60
19166;DHT22;9715;48.816;10.520;2022-07-06T10:00:59;23.20;91.40
19166;DHT22;9715;48.816;10.520;2022-07-06T10:03:28;23.30;91.10
19166;DHT22;9715;48.816;10.520;2022-07-06T10:05:57;23.40;90.50
19166;DHT22;9715;48.816;10.520;2022-07-06T10:08:27;23.50;90.90
19166;DHT22;9715;48.816;10.520;2022-07-06T10:10:56;23.60;90.20
19166;DHT22;9715;48.816;10.520;2022-07-06T10:13:26;23.70;90.70
19166;DHT22;9715;48.816;10.520;2022-07-06T10:15:55;23.70;91.90
19166;DHT22;9715;48.816;10.520;2022-07-06T10:18:26;23.90;90.90
19166;DHT22;9715;48.816;10.520;2022-07-06T10:20:55;24.00;91.40
19166;DHT22;9715;48.816;10.520;2022-07-06T10:23:26;24.10;91.80
19166;DHT22;9715;48.816;10.520;2022-07-06T10:25:55;24.20;91.00
19166;DHT22;9715;48.816;10.520;2022-07-06T10:28:25;24.30;91.50
19166;DHT22;9715;48.816;10.520;2022-07-06T10:30:54;24.40;91.90
19166;DHT22;9715;48.816;10.520;2022-07-06T10:33:25;24.50;90.80
19166;DHT22;9715;48.816;10.520;2022-07-06T10:35:55;24.50;90.40
19166;DHT22;9715;48.816;10.520;2022-07-06T10:38:31;24.40;90.40
19166;DHT22;9715;48.816;10.520;2022-07-06T10:41:02;24.40;90.60
19166;DHT22;9715;48.816;10.520;2022-07-06T10:43:34;24.40;91.00
19166;DHT22;9715;48.816;10.520;2022-07-06T10:46:07;24.40;91.30
19166;DHT22;9715;48.816;10.520;2022-07-06T10:48:38;24.30;90.70
19166;DHT22;9715;48.816;10.520;2022-07-06T10:51:07;24.30;90.80
19166;DHT22;9715;48.816;10.520;2022-07-06T10:53:36;24.30;90.80
19166;DHT22;9715;48.816;10.520;2022-07-06T10:56:07;24.50;90.70
19166;DHT22;9715;48.816;10.520;2022-07-06T10:58:40;24.50;90.20
19166;DHT22;9715;48.816;10.520;2022-07-06T11:01:10;24.40;90.40
19166;DHT22;9715;48.816;10.520;2022-07-06T11:03:41;24.30;89.90
19166;DHT22;9715;48.816;10.520;2022-07-06T11:06:13;24.40;90.40
19166;DHT22;9715;48.816;10.520;2022-07-06T11:08:52;24.50;90.40
19166;DHT22;9715;48.816;10.520;2022-07-06T11:11:23;24.70;91.00
19166;DHT22;9715;48.816;10.520;2022-07-06T11:13:54;24.90;88.70
19166;DHT22;9715;48.816;10.520;2022-07-06T11:16:24;25.00;88.10
19166;DHT22;9715;48.816;10.520;2022-07-06T11:19:03;24.90;87.60
19166;DHT22;9715;48.816;10.520;2022-07-06T11:21:35;24.70;86.00
19166;DHT22;9715;48.816;10.520;2022-07-06T11:24:05;24.40;87.30
19166;DHT22;9715;48.816;10.520;2022-07-06T11:26:34;24.30;88.60
19166;DHT22;9715;48.816;10.520;2022-07-06T11:29:07;24.30;89.30
19166;DHT22;9715;48.816;10.520;2022-07-06T11:31:38;24.20;90.10
19166;DHT22;9715;48.816;10.520;2022-07-06T11:34:09;24.00;90.50
19166;DHT22;9715;48.816;10.520;2022-07-06T11:36:38;23.90;90.40
19166;DHT22;9715;48.816;10.520;2022-07-06T11:39:12;24.00;89.90
19166;DHT22;9715;48.816;10.520;2022-07-06T11:41:40;24.20;90.60
19166;DHT22;9715;48.816;10.520;2022-07-06T11:44:17;24.30;90.00
19166;DHT22;9715;48.816;10.520;2022-07-06T11:46:45;24.60;88.50
19166;DHT22;9715;48.816;10.520;2022-07-06T11:49:15;24.60;86.80
19166;DHT22;9715;48.816;10.520;2022-07-06T11:51:45;24.50;87.20
19166;DHT22;9715;48.816;10.520;2022-07-06T11:54:15;24.20;87.40
19166;DHT22;9715;48.816;10.520;2022-07-06T11:56:48;24.10;88.10
19166;DHT22;9715;48.816;10.520;2022-07-06T11:59:21;24.00;89.00
19166;DHT22;9715;48.816;10.520;2022-07-06T12:01:56;24.00;89.00
19166;DHT22;9715;48.816;10.520;2022-07-06T12:04:27;24.10;90.20
19166;DHT22;9715;48.816;10.520;2022-07-06T12:06:57;24.00;88.40
19166;DHT22;9715;48.816;10.520;2022-07-06T12:09:29;24.00;88.90
19166;DHT22;9715;48.816;10.520;2022-07-06T12:11:58;24.00;90.00
19166;DHT22;9715;48.816;10.520;2022-07-06T12:14:29;24.00;90.60
19166;DHT22;9715;48.816;10.520;2022-07-06T12:17:02;24.00;90.30
19166;DHT22;9715;48.816;10.520;2022-07-06T12:19:33;24.00;90.20
19166;DHT22;9715;48.816;10.520;2022-07-06T12:22:02;24.00;89.50
19166;DHT22;9715;48.816;10.520;2022-07-06T12:24:32;24.10;90.10
19166;DHT22;9715;48.816;10.520;2022-07-06T12:27:10;24.10;90.60
19166;DHT22;9715;48.816;10.520;2022-07-06T12:29:39;24.50;90.30
19166;DHT22;9715;48.816;10.520;2022-07-06T12:32:14;24.70;88.20
19166;DHT22;9715;48.816;10.520;2022-07-06T12:34:45;24.90;89.60
19166;DHT22;9715;48.816;10.520;2022-07-06T12:37:13;24.90;90.00
19166;DHT22;9715;48.816;10.520;2022-07-06T12:39:44;25.00;89.70
19166;DHT22;9715;48.816;10.520;2022-07-06T12:42:14;24.80;88.10
19166;DHT22;9715;48.816;10.520;2022-07-06T12:44:47;24.70;89.00
19166;DHT22;9715;48.816;10.520;2022-07-06T12:47:17;24.70;89.80
19166;DHT22;9715;48.816;10.520;2022-07-06T12:50:04;25.00;89.50
19166;DHT22;9715;48.816;10.520;2022-07-06T12:52:33;25.40;87.20
19166;DHT22;9715;48.816;10.520;2022-07-06T12:55:03;25.60;87.40
19166;DHT22;9715;48.816;10.520;2022-07-06T12:57:42;25.70;86.20
19166;DHT22;9715;48.816;10.520;2022-07-06T13:00:12;25.40;87.20
19166;DHT22;9715;48.816;10.520;2022-07-06T13:02:43;25.10;89.30
19166;DHT22;9715;48.816;10.520;2022-07-06T13:05:33;24.80;87.80
19166;DHT22;9715;48.816;10.520;2022-07-06T13:08:02;24.60;89.10
19166;DHT22;9715;48.816;10.520;2022-07-06T13:10:31;24.50;90.10
19166;DHT22;9715;48.816;10.520;2022-07-06T13:13:00;24.70;89.30
19166;DHT22;9715;48.816;10.520;2022-07-06T13:15:29;25.20;88.00
19166;DHT22;9715;48.816;10.520;2022-07-06T13:17:57;25.40;86.20
19166;DHT22;9715;48.816;10.520;2022-07-06T13:20:26;25.60;86.30
19166;DHT22;9715;48.816;10.520;2022-07-06T13:22:56;25.40;87.90
19166;DHT22;9715;48.816;10.520;2022-07-06T13:25:24;25.10;89.60
19166;DHT22;9715;48.816;10.520;2022-07-06T13:27:52;25.10;90.10
19166;DHT22;9715;48.816;10.520;2022-07-06T13:30:21;25.40;90.30
19166;DHT22;9715;48.816;10.520;2022-07-06T13:32:49;25.70;86.70
19166;DHT22;9715;48.816;10.520;2022-07-06T13:35:18;26.00;87.70
19166;DHT22;9715;48.816;10.520;2022-07-06T13:37:46;26.40;86.40
19166;DHT22;9715;48.816;10.520;2022-07-06T13:40:18;26.70;84.40
19166;DHT22;9715;48.816;10.520;2022-07-06T13:42:47;26.90;83.80
19166;DHT22;9715;48.816;10.520;2022-07-06T13:45:15;27.00;82.00
19166;DHT22;9715;48.816;10.520;2022-07-06T13:47:44;27.00;83.50
19166;DHT22;9715;48.816;10.520;2022-07-06T13:50:12;26.90;83.10
19166;DHT22;9715;48.816;10.520;2022-07-06T13:52:40;26.90;82.50
19166;DHT22;9715;48.816;10.520;2022-07-06T13:55:09;26.90;82.40
19166;DHT22;9715;48.816;10.520;2022-07-06T13:57:39;27.10;81.50
19166;DHT22;9715;48.816;10.520;2022-07-06T14:00:10;27.10;80.10
19166;DHT22;9715;48.816;10.520;2022-07-06T14:02:38;27.20;80.70
19166;DHT22;9715;48.816;10.520;2022-07-06T14:05:07;27.40;79.40
19166;DHT22;9715;48.816;10.520;2022-07-06T14:07:36;27.70;82.30
19166;DHT22;9715;48.816;10.520;2022-07-06T14:10:05;28.00;78.80
19166;DHT22;9715;48.816;10.520;2022-07-06T14:12:34;27.60;79.00
19166;DHT22;9715;48.816;10.520;2022-07-06T14:15:05;27.30;79.30
19166;DHT22;9715;48.816;10.520;2022-07-06T14:17:33;27.40;81.40
19166;DHT22;9715;48.816;10.520;2022-07-06T14:20:02;27.60;81.90
19166;DHT22;9715;48.816;10.520;2022-07-06T14:22:31;27.70;78.40
19166;DHT22;9715;48.816;10.520;2022-07-06T14:24:59;27.90;78.90
19166;DHT22;9715;48.816;10.520;2022-07-06T14:27:28;28.10;79.00
19166;DHT22;9715;48.816;10.520;2022-07-06T14:29:56;28.20;78.10
19166;DHT22;9715;48.816;10.520;2022-07-06T14:32:25;28.00;78.20
19166;DHT22;9715;48.816;10.520;2022-07-06T14:34:54;27.90;78.00
19166;DHT22;9715;48.816;10.520;2022-07-06T14:37:23;27.90;76.60
19166;DHT22;9715;48.816;10.520;2022-07-06T14:39:51;27.80;76.20
19166;DHT22;9715;48.816;10.520;2022-07-06T14:42:19;27.60;77.70
19166;DHT22;9715;48.816;10.520;2022-07-06T14:44:48;27.70;79.10
19166;DHT22;9715;48.816;10.520;2022-07-06T14:47:17;27.90;78.00
19166;DHT22;9715;48.816;10.520;2022-07-06T14:49:47;28.20;76.90
19166;DHT22;9715;48.816;10.520;2022-07-06T14:52:17;28.30;77.30
19166;DHT22;9715;48.816;10.520;2022-07-06T14:54:46;28.50;76.90
19166;DHT22;9715;48.816;10.520;2022-07-06T14:57:14;28.50;76.20
19166;DHT22;9715;48.816;10.520;2022-07-06T14:59:42;28.50;74.00
19166;DHT22;9715;48.816;10.520;2022-07-06T15:02:11;28.40;75.10
19166;DHT22;9715;48.816;10.520;2022-07-06T15:04:39;28.20;75.30
19166;DHT22;9715;48.816;10.520;2022-07-06T15:07:09;28.20;76.40
19166;DHT22;9715;48.816;10.520;2022-07-06T15:09:38;28.10;74.90
19166;DHT22;9715;48.816;10.520;2022-07-06T15:12:07;28.00;75.10
19166;DHT22;9715;48.816;10.520;2022-07-06T15:14:35;27.90;75.00
19166;DHT22;9715;48.816;10.520;2022-07-06T15:17:04;27.90;76.90
19166;DHT22;9715;48.816;10.520;2022-07-06T15:19:33;28.00;75.40
19166;DHT22;9715;48.816;10.520;2022-07-06T15:22:01;28.20;75.30
19166;DHT22;9715;48.816;10.520;2022-07-06T15:24:31;28.20;75.00
19166;DHT22;9715;48.816;10.520;2022-07-06T15:26:59;28.20;72.80
19166;DHT22;9715;48.816;10.520;2022-07-06T15:29:29;28.10;74.00
19166;DHT22;9715;48.816;10.520;2022-07-06T15:31:57;28.10;73.50
19166;DHT22;9715;48.816;10.520;2022-07-06T15:34:26;28.00;74.00
19166;DHT22;9715;48.816;10.520;2022-07-06T15:36:55;28.00;75.10
19166;DHT22;9715;48.816;10.520;2022-07-06T15:39:23;28.00;76.10
19166;DHT22;9715;48.816;10.520;2022-07-06T15:41:52;28.00;75.10
19166;DHT22;9715;48.816;10.520;2022-07-06T15:44:21;27.80;74.90
19166;DHT22;9715;48.816;10.520;2022-07-06T15:46:49;27.60;77.00